« Back
NWS Peachtree City, Ga » Text Product » CSG Terminal Aerodrome Forecast


Printer-friendly Version
Current Version              Previous Versions:   1  2  3  4  5  6  7  8  9  

Terminal Aerodrome Forecast

703
FTUS42 KFFC 201100
TAFCSG
TAF
KCSG 201120Z 2012/2112 06010KT P6SM OVC025
     FM202100 06010KT P6SM BKN040
     FM210000 06005KT P6SM FEW050 SCT250=



USA.gov is the U.S. government's official web portal to all federal, state and local government web resources and services.